sensor_id;sensor_type;location;lat;lon;timestamp;pressure;altitude;pressure_sealevel;temperature;humidity
81865;BME280;71313;43.514;1.500;2023-09-12T00:00:19;99657.34;;;27.46;54.05
81865;BME280;71313;43.514;1.500;2023-09-12T00:02:44;99662.03;;;27.46;54.34
81865;BME280;71313;43.514;1.500;2023-09-12T00:05:09;99661.63;;;27.42;54.29
81865;BME280;71313;43.514;1.500;2023-09-12T00:07:35;99660.78;;;27.42;53.74
81865;BME280;71313;43.514;1.500;2023-09-12T00:10:02;99665.47;;;27.35;53.00
81865;BME280;71313;43.514;1.500;2023-09-12T00:12:27;99665.94;;;27.25;53.28
81865;BME280;71313;43.514;1.500;2023-09-12T00:14:54;99679.09;;;27.23;52.48
81865;BME280;71313;43.514;1.500;2023-09-12T00:17:19;99670.84;;;27.16;52.43
81865;BME280;71313;43.514;1.500;2023-09-12T00:19:45;99675.31;;;27.11;52.12
81865;BME280;71313;43.514;1.500;2023-09-12T00:22:10;99681.25;;;27.08;52.54
81865;BME280;71313;43.514;1.500;2023-09-12T00:24:36;99670.25;;;26.95;51.84
81865;BME280;71313;43.514;1.500;2023-09-12T00:27:03;99684.88;;;26.89;52.70
81865;BME280;71313;43.514;1.500;2023-09-12T00:29:30;99680.88;;;26.84;52.28
81865;BME280;71313;43.514;1.500;2023-09-12T00:31:55;99680.47;;;26.74;52.32
81865;BME280;71313;43.514;1.500;2023-09-12T00:34:20;99691.06;;;26.77;52.96
81865;BME280;71313;43.514;1.500;2023-09-12T00:36:46;99691.50;;;26.74;52.53
81865;BME280;71313;43.514;1.500;2023-09-12T00:39:11;99691.69;;;26.73;52.17
81865;BME280;71313;43.514;1.500;2023-09-12T00:41:37;99697.84;;;26.68;52.79
81865;BME280;71313;43.514;1.500;2023-09-12T00:44:02;99684.72;;;26.64;52.33
81865;BME280;71313;43.514;1.500;2023-09-12T00:46:28;99702.50;;;26.68;52.46
81865;BME280;71313;43.514;1.500;2023-09-12T00:48:55;99701.66;;;26.67;52.41
81865;BME280;71313;43.514;1.500;2023-09-12T00:51:24;99708.03;;;26.61;52.30
81865;BME280;71313;43.514;1.500;2023-09-12T00:53:50;99701.88;;;26.59;52.17
81865;BME280;71313;43.514;1.500;2023-09-12T00:56:16;99705.69;;;26.58;53.27
81865;BME280;71313;43.514;1.500;2023-09-12T00:58:41;99705.06;;;26.56;53.13
81865;BME280;71313;43.514;1.500;2023-09-12T01:01:07;99687.28;;;26.52;53.09
81865;BME280;71313;43.514;1.500;2023-09-12T01:03:32;99684.97;;;26.49;53.48
81865;BME280;71313;43.514;1.500;2023-09-12T01:06:00;99667.63;;;26.42;53.23
81865;BME280;71313;43.514;1.500;2023-09-12T01:08:25;99659.34;;;26.42;53.00
81865;BME280;71313;43.514;1.500;2023-09-12T01:10:52;99663.38;;;26.46;53.16
81865;BME280;71313;43.514;1.500;2023-09-12T01:13:19;99665.28;;;26.45;53.46
81865;BME280;71313;43.514;1.500;2023-09-12T01:15:44;99670.38;;;26.42;53.12
81865;BME280;71313;43.514;1.500;2023-09-12T01:18:10;99668.88;;;26.39;53.48
81865;BME280;71313;43.514;1.500;2023-09-12T01:20:38;99680.50;;;26.28;53.78
81865;BME280;71313;43.514;1.500;2023-09-12T01:26:17;99685.16;;;26.28;53.83
81865;BME280;71313;43.514;1.500;2023-09-12T01:28:45;99681.56;;;26.20;53.77
81865;BME280;71313;43.514;1.500;2023-09-12T01:31:12;99679.22;;;26.24;53.36
81865;BME280;71313;43.514;1.500;2023-09-12T01:33:39;99680.06;;;26.11;54.61
81865;BME280;71313;43.514;1.500;2023-09-12T01:36:05;99677.75;;;25.95;54.65
81865;BME280;71313;43.514;1.500;2023-09-12T01:38:30;99687.50;;;25.91;54.86
81865;BME280;71313;43.514;1.500;2023-09-12T01:40:56;99693.19;;;26.03;55.22
81865;BME280;71313;43.514;1.500;2023-09-12T01:43:23;99681.16;;;25.97;54.49
81865;BME280;71313;43.514;1.500;2023-09-12T01:45:54;99691.09;;;25.98;54.74
81865;BME280;71313;43.514;1.500;2023-09-12T01:48:23;99691.47;;;25.69;56.17
81865;BME280;71313;43.514;1.500;2023-09-12T01:50:52;99702.06;;;25.85;55.79
81865;BME280;71313;43.514;1.500;2023-09-12T01:53:18;99709.25;;;25.79;55.18
81865;BME280;71313;43.514;1.500;2023-09-12T01:55:45;99725.31;;;25.82;55.42
81865;BME280;71313;43.514;1.500;2023-09-12T01:58:13;99735.03;;;25.78;55.92
81865;BME280;71313;43.514;1.500;2023-09-12T02:00:40;99745.16;;;25.71;55.63
81865;BME280;71313;43.514;1.500;2023-09-12T02:03:05;99752.13;;;25.67;55.99
81865;BME280;71313;43.514;1.500;2023-09-12T02:05:31;99744.75;;;25.68;55.98
81865;BME280;71313;43.514;1.500;2023-09-12T02:07:56;99740.94;;;25.69;56.29
81865;BME280;71313;43.514;1.500;2023-09-12T02:10:22;99738.81;;;25.71;55.75
81865;BME280;71313;43.514;1.500;2023-09-12T02:12:47;99742.22;;;25.73;56.44
81865;BME280;71313;43.514;1.500;2023-09-12T02:15:13;99726.59;;;25.80;57.02
81865;BME280;71313;43.514;1.500;2023-09-12T02:17:39;99729.97;;;25.82;56.60
81865;BME280;71313;43.514;1.500;2023-09-12T02:20:07;99724.06;;;25.85;57.02
81865;BME280;71313;43.514;1.500;2023-09-12T02:22:32;99728.28;;;25.81;57.02
81865;BME280;71313;43.514;1.500;2023-09-12T02:24:58;99731.25;;;25.79;57.27
81865;BME280;71313;43.514;1.500;2023-09-12T02:27:23;99729.97;;;25.82;57.39
81865;BME280;71313;43.514;1.500;2023-09-12T02:29:48;99724.91;;;25.79;57.72
81865;BME280;71313;43.514;1.500;2023-09-12T02:32:14;99722.78;;;25.81;57.38
81865;BME280;71313;43.514;1.500;2023-09-12T02:34:39;99713.91;;;25.79;57.91
81865;BME280;71313;43.514;1.500;2023-09-12T02:37:05;99709.66;;;25.76;57.28
81865;BME280;71313;43.514;1.500;2023-09-12T02:39:30;99714.31;;;25.76;57.59
81865;BME280;71313;43.514;1.500;2023-09-12T02:41:55;99725.31;;;25.76;57.47
81865;BME280;71313;43.514;1.500;2023-09-12T02:44:21;99719.41;;;25.79;56.94
81865;BME280;71313;43.514;1.500;2023-09-12T02:46:46;99725.09;;;25.77;57.43
81865;BME280;71313;43.514;1.500;2023-09-12T02:49:11;99716.84;;;25.77;58.12
81865;BME280;71313;43.514;1.500;2023-09-12T02:51:40;99712.84;;;25.80;58.01
81865;BME280;71313;43.514;1.500;2023-09-12T02:54:06;99711.16;;;25.79;57.24
81865;BME280;71313;43.514;1.500;2023-09-12T02:56:31;99703.75;;;25.79;57.58
81865;BME280;71313;43.514;1.500;2023-09-12T02:58:57;99699.09;;;25.80;57.31
81865;BME280;71313;43.514;1.500;2023-09-12T03:01:23;99699.09;;;25.80;57.79
81865;BME280;71313;43.514;1.500;2023-09-12T03:03:53;99692.97;;;25.78;58.35
81865;BME280;71313;43.514;1.500;2023-09-12T03:06:18;99678.59;;;25.76;57.39
81865;BME280;71313;43.514;1.500;2023-09-12T03:08:45;99680.06;;;25.78;58.28
81865;BME280;71313;43.514;1.500;2023-09-12T03:11:10;99679.63;;;25.75;57.68
81865;BME280;71313;43.514;1.500;2023-09-12T03:13:37;99684.28;;;25.74;57.70
81865;BME280;71313;43.514;1.500;2023-09-12T03:16:03;99660.19;;;25.70;58.37
81865;BME280;71313;43.514;1.500;2023-09-12T03:18:28;99668.00;;;25.73;58.51
81865;BME280;71313;43.514;1.500;2023-09-12T03:20:54;99665.69;;;25.70;57.60
81865;BME280;71313;43.514;1.500;2023-09-12T03:23:20;99669.06;;;25.72;57.89
81865;BME280;71313;43.514;1.500;2023-09-12T03:25:45;99658.91;;;25.66;58.26
81865;BME280;71313;43.514;1.500;2023-09-12T03:28:11;99669.47;;;25.69;58.33
81865;BME280;71313;43.514;1.500;2023-09-12T03:30:37;99663.09;;;25.62;58.57
81865;BME280;71313;43.514;1.500;2023-09-12T03:33:04;99666.09;;;25.67;57.76
81865;BME280;71313;43.514;1.500;2023-09-12T03:35:31;99677.47;;;25.64;58.27
81865;BME280;71313;43.514;1.500;2023-09-12T03:37:57;99681.28;;;25.63;58.48
81865;BME280;71313;43.514;1.500;2023-09-12T03:40:22;99679.56;;;25.62;58.13
81865;BME280;71313;43.514;1.500;2023-09-12T03:42:47;99664.56;;;25.58;58.39
81865;BME280;71313;43.514;1.500;2023-09-12T03:45:13;99663.06;;;25.55;58.11
81865;BME280;71313;43.514;1.500;2023-09-12T03:47:38;99672.38;;;25.54;58.57
81865;BME280;71313;43.514;1.500;2023-09-12T03:50:04;99667.09;;;25.52;58.67
81865;BME280;71313;43.514;1.500;2023-09-12T03:52:30;99666.03;;;25.53;57.93
81865;BME280;71313;43.514;1.500;2023-09-12T03:54:55;99661.59;;;25.52;58.48
81865;BME280;71313;43.514;1.500;2023-09-12T03:57:21;99659.91;;;25.51;57.96
81865;BME280;71313;43.514;1.500;2023-09-12T03:59:46;99652.47;;;25.45;58.15
81865;BME280;71313;43.514;1.500;2023-09-12T04:02:12;99666.00;;;25.47;59.00
81865;BME280;71313;43.514;1.500;2023-09-12T04:04:38;99656.06;;;25.39;58.78
81865;BME280;71313;43.514;1.500;2023-09-12T04:07:04;99670.66;;;25.46;58.42
81865;BME280;71313;43.514;1.500;2023-09-12T04:09:29;99674.88;;;25.42;58.55
81865;BME280;71313;43.514;1.500;2023-09-12T04:11:55;99659.22;;;25.36;58.95
81865;BME280;71313;43.514;1.500;2023-09-12T04:14:21;99677.38;;;25.37;58.32
81865;BME280;71313;43.514;1.500;2023-09-12T04:16:46;99677.38;;;25.37;58.46
81865;BME280;71313;43.514;1.500;2023-09-12T04:19:13;99673.16;;;25.35;59.05
81865;BME280;71313;43.514;1.500;2023-09-12T04:21:39;99672.72;;;25.31;58.48
81865;BME280;71313;43.514;1.500;2023-09-12T04:24:05;99680.31;;;25.29;58.44
81865;BME280;71313;43.514;1.500;2023-09-12T04:26:30;99677.38;;;25.31;58.66
81865;BME280;71313;43.514;1.500;2023-09-12T04:28:56;99683.63;;;25.11;59.40
81865;BME280;71313;43.514;1.500;2023-09-12T04:31:21;99677.28;;;25.11;59.28
81865;BME280;71313;43.514;1.500;2023-09-12T04:33:47;99685.94;;;25.08;58.90
81865;BME280;71313;43.514;1.500;2023-09-12T04:36:12;99683.81;;;25.10;58.99
81865;BME280;71313;43.514;1.500;2023-09-12T04:38:37;99678.75;;;25.07;58.46
81865;BME280;71313;43.514;1.500;2023-09-12T04:41:03;99675.59;;;25.10;58.49
81865;BME280;71313;43.514;1.500;2023-09-12T04:43:31;99673.91;;;25.09;58.26
81865;BME280;71313;43.514;1.500;2023-09-12T04:45:56;99670.50;;;25.07;58.60
81865;BME280;71313;43.514;1.500;2023-09-12T04:48:22;99672.91;;;24.88;59.73
81865;BME280;71313;43.514;1.500;2023-09-12T04:50:48;99678.81;;;24.85;59.82
81865;BME280;71313;43.514;1.500;2023-09-12T04:53:13;99675.41;;;24.83;58.90
81865;BME280;71313;43.514;1.500;2023-09-12T04:55:39;99671.16;;;24.74;59.46
81865;BME280;71313;43.514;1.500;2023-09-12T04:58:05;99683.81;;;24.75;59.21
81865;BME280;71313;43.514;1.500;2023-09-12T05:00:31;99682.09;;;24.68;59.62
81865;BME280;71313;43.514;1.500;2023-09-12T05:02:56;99682.69;;;24.63;59.69
81865;BME280;71313;43.514;1.500;2023-09-12T05:05:22;99688.78;;;24.58;60.28
81865;BME280;71313;43.514;1.500;2023-09-12T05:07:47;99698.69;;;24.59;60.79
81865;BME280;71313;43.514;1.500;2023-09-12T05:10:13;99698.41;;;24.48;60.47
81865;BME280;71313;43.514;1.500;2023-09-12T05:12:38;99695.91;;;24.53;60.20
81865;BME280;71313;43.514;1.500;2023-09-12T05:15:04;99700.25;;;24.41;60.88
81865;BME280;71313;43.514;1.500;2023-09-12T05:17:29;99700.50;;;24.46;60.41
81865;BME280;71313;43.514;1.500;2023-09-12T05:19:55;99709.38;;;24.48;60.26
81865;BME280;71313;43.514;1.500;2023-09-12T05:22:20;99697.97;;;24.44;60.55
81865;BME280;71313;43.514;1.500;2023-09-12T05:24:46;99699.25;;;24.48;60.27
81865;BME280;71313;43.514;1.500;2023-09-12T05:27:11;99702.16;;;24.40;60.57
81865;BME280;71313;43.514;1.500;2023-09-12T05:29:37;99701.16;;;24.48;60.42
81865;BME280;71313;43.514;1.500;2023-09-12T05:32:03;99696.72;;;24.47;60.86
81865;BME280;71313;43.514;1.500;2023-09-12T05:34:29;99697.09;;;24.44;60.69
81865;BME280;71313;43.514;1.500;2023-09-12T05:36:54;99694.16;;;24.45;60.18
81865;BME280;71313;43.514;1.500;2023-09-12T05:39:20;99689.69;;;24.38;60.93
81865;BME280;71313;43.514;1.500;2023-09-12T05:41:45;99691.53;;;24.31;61.29
81865;BME280;71313;43.514;1.500;2023-09-12T05:44:11;99691.63;;;24.22;61.54
81865;BME280;71313;43.514;1.500;2023-09-12T05:46:38;99694.78;;;24.19;61.13
81865;BME280;71313;43.514;1.500;2023-09-12T05:49:03;99708.69;;;24.18;62.27
81865;BME280;71313;43.514;1.500;2023-09-12T05:51:29;99717.94;;;24.17;61.61
81865;BME280;71313;43.514;1.500;2023-09-12T05:53:55;99717.50;;;24.13;61.73
81865;BME280;71313;43.514;1.500;2023-09-12T05:56:20;99723.22;;;24.18;61.44
81865;BME280;71313;43.514;1.500;2023-09-12T05:58:46;99712.00;;;24.13;61.98
81865;BME280;71313;43.514;1.500;2023-09-12T06:01:11;99715.16;;;24.10;60.97
81865;BME280;71313;43.514;1.500;2023-09-12T06:03:37;99718.34;;;24.14;62.06
81865;BME280;71313;43.514;1.500;2023-09-12T06:06:03;99714.56;;;24.15;61.21
81865;BME280;71313;43.514;1.500;2023-09-12T06:08:28;99723.38;;;24.10;61.75
81865;BME280;71313;43.514;1.500;2023-09-12T06:10:54;99714.50;;;24.08;61.95
81865;BME280;71313;43.514;1.500;2023-09-12T06:13:20;99710.31;;;24.12;61.88
81865;BME280;71313;43.514;1.500;2023-09-12T06:15:46;99703.97;;;24.12;62.04
81865;BME280;71313;43.514;1.500;2023-09-12T06:18:11;99703.91;;;24.05;61.92
81865;BME280;71313;43.514;1.500;2023-09-12T06:20:36;99706.00;;;24.03;61.83
81865;BME280;71313;43.514;1.500;2023-09-12T06:23:02;99708.63;;;24.11;62.19
81865;BME280;71313;43.514;1.500;2023-09-12T06:25:28;99712.41;;;24.10;61.44
81865;BME280;71313;43.514;1.500;2023-09-12T06:27:54;99711.16;;;24.13;62.05
81865;BME280;71313;43.514;1.500;2023-09-12T06:30:20;99716.44;;;24.14;61.73
81865;BME280;71313;43.514;1.500;2023-09-12T06:32:45;99720.88;;;24.15;62.26
81865;BME280;71313;43.514;1.500;2023-09-12T06:35:11;99723.81;;;24.14;62.28
81865;BME280;71313;43.514;1.500;2023-09-12T06:37:39;99715.78;;;24.12;61.63
81865;BME280;71313;43.514;1.500;2023-09-12T06:40:06;99725.13;;;24.18;62.27
81865;BME280;71313;43.514;1.500;2023-09-12T06:42:32;99719.59;;;24.11;62.08
81865;BME280;71313;43.514;1.500;2023-09-12T06:44:57;99727.81;;;24.11;62.53
81865;BME280;71313;43.514;1.500;2023-09-12T06:47:23;99730.16;;;24.14;61.59
81865;BME280;71313;43.514;1.500;2023-09-12T06:49:48;99735.63;;;24.14;62.46
81865;BME280;71313;43.514;1.500;2023-09-12T06:52:13;99728.06;;;24.16;61.27
81865;BME280;71313;43.514;1.500;2023-09-12T06:54:39;99721.13;;;24.20;62.12
81865;BME280;71313;43.514;1.500;2023-09-12T06:57:04;99726.03;;;24.25;62.67
81865;BME280;71313;43.514;1.500;2023-09-12T06:59:30;99722.06;;;24.27;61.81
81865;BME280;71313;43.514;1.500;2023-09-12T07:01:55;99720.63;;;24.32;62.60
81865;BME280;71313;43.514;1.500;2023-09-12T07:04:21;99718.16;;;24.37;61.79
81865;BME280;71313;43.514;1.500;2023-09-12T07:06:47;99719.84;;;24.38;61.80
81865;BME280;71313;43.514;1.500;2023-09-12T07:09:12;99737.22;;;24.45;62.29
81865;BME280;71313;43.514;1.500;2023-09-12T07:11:42;99749.88;;;24.46;62.38
81865;BME280;71313;43.514;1.500;2023-09-12T07:14:11;99751.16;;;24.50;61.78
81865;BME280;71313;43.514;1.500;2023-09-12T07:16:36;99748.69;;;24.55;61.85
81865;BME280;71313;43.514;1.500;2023-09-12T07:19:02;99757.97;;;24.54;61.80
81865;BME280;71313;43.514;1.500;2023-09-12T07:21:28;99751.16;;;24.50;61.60
81865;BME280;71313;43.514;1.500;2023-09-12T07:23:55;99755.81;;;24.49;61.41
81865;BME280;71313;43.514;1.500;2023-09-12T07:26:20;99763.00;;;24.50;61.16
81865;BME280;71313;43.514;1.500;2023-09-12T07:28:46;99771.03;;;24.52;61.19
81865;BME280;71313;43.514;1.500;2023-09-12T07:31:11;99775.28;;;24.54;61.33
81865;BME280;71313;43.514;1.500;2023-09-12T07:33:37;99776.38;;;24.60;61.53
81865;BME280;71313;43.514;1.500;2023-09-12T07:36:02;99782.50;;;24.62;61.32
81865;BME280;71313;43.514;1.500;2023-09-12T07:38:28;99780.00;;;24.67;61.10
81865;BME280;71313;43.514;1.500;2023-09-12T07:40:56;99779.16;;;24.67;61.00
81865;BME280;71313;43.514;1.500;2023-09-12T07:43:21;99788.50;;;24.72;60.97
81865;BME280;71313;43.514;1.500;2023-09-12T07:45:46;99780.50;;;24.77;61.18
81865;BME280;71313;43.514;1.500;2023-09-12T07:48:12;99778.63;;;24.78;61.37
81865;BME280;71313;43.514;1.500;2023-09-12T07:50:38;99791.09;;;24.80;61.71
81865;BME280;71313;43.514;1.500;2023-09-12T07:53:04;99805.88;;;24.79;61.53
81865;BME280;71313;43.514;1.500;2023-09-12T07:55:30;99810.50;;;24.79;60.29
81865;BME280;71313;43.514;1.500;2023-09-12T07:58:01;99820.25;;;24.81;60.49
81865;BME280;71313;43.514;1.500;2023-09-12T08:00:26;99829.91;;;24.77;60.67
81865;BME280;71313;43.514;1.500;2023-09-12T08:02:52;99829.84;;;24.71;60.85
81865;BME280;71313;43.514;1.500;2023-09-12T08:05:17;99837.88;;;24.72;61.52
81865;BME280;71313;43.514;1.500;2023-09-12T08:07:44;99831.75;;;24.70;61.08
81865;BME280;71313;43.514;1.500;2023-09-12T08:10:09;99836.19;;;24.71;60.99
81865;BME280;71313;43.514;1.500;2023-09-12T08:12:36;99832.41;;;24.72;60.77
81865;BME280;71313;43.514;1.500;2023-09-12T08:15:03;99830.44;;;24.66;60.97
81865;BME280;71313;43.514;1.500;2023-09-12T08:17:29;99828.16;;;24.70;60.99
81865;BME280;71313;43.514;1.500;2023-09-12T08:19:54;99837.50;;;24.75;61.01
81865;BME280;71313;43.514;1.500;2023-09-12T08:22:20;99837.09;;;24.78;61.04
81865;BME280;71313;43.514;1.500;2023-09-12T08:24:45;99835.41;;;24.77;60.89
81865;BME280;71313;43.514;1.500;2023-09-12T08:27:11;99849.13;;;24.77;61.10
81865;BME280;71313;43.514;1.500;2023-09-12T08:29:36;99841.09;;;24.76;61.29
81865;BME280;71313;43.514;1.500;2023-09-12T08:32:02;99853.56;;;24.78;61.04
81865;BME280;71313;43.514;1.500;2023-09-12T08:34:28;99854.22;;;24.80;61.12
81865;BME280;71313;43.514;1.500;2023-09-12T08:36:53;99847.69;;;24.81;61.61
81865;BME280;71313;43.514;1.500;2023-09-12T08:39:24;99852.78;;;24.84;60.70
81865;BME280;71313;43.514;1.500;2023-09-12T08:41:51;99852.97;;;24.83;60.92
81865;BME280;71313;43.514;1.500;2023-09-12T08:44:17;99866.75;;;24.89;61.09
81865;BME280;71313;43.514;1.500;2023-09-12T08:46:44;99863.34;;;24.87;60.74
81865;BME280;71313;43.514;1.500;2023-09-12T08:49:10;99857.88;;;24.87;61.39
81865;BME280;71313;43.514;1.500;2023-09-12T08:51:39;99864.00;;;24.89;61.07
81865;BME280;71313;43.514;1.500;2023-09-12T08:54:08;99859.13;;;24.85;61.22
81865;BME280;71313;43.514;1.500;2023-09-12T08:56:36;99861.22;;;24.83;61.06
81865;BME280;71313;43.514;1.500;2023-09-12T08:59:04;99865.44;;;24.85;60.92
81865;BME280;71313;43.514;1.500;2023-09-12T09:01:34;99868.19;;;24.85;60.71
81865;BME280;71313;43.514;1.500;2023-09-12T09:04:02;99872.25;;;24.89;61.15
81865;BME280;71313;43.514;1.500;2023-09-12T09:06:30;99865.06;;;24.88;60.71
81865;BME280;71313;43.514;1.500;2023-09-12T09:08:57;99871.41;;;24.89;61.05
81865;BME280;71313;43.514;1.500;2023-09-12T09:11:23;99867.81;;;24.88;60.78
81865;BME280;71313;43.514;1.500;2023-09-12T09:13:52;99863.34;;;24.87;61.45
81865;BME280;71313;43.514;1.500;2023-09-12T09:16:18;99868.44;;;24.90;61.02
81865;BME280;71313;43.514;1.500;2023-09-12T09:21:19;99862.13;;;24.90;61.59
81865;BME280;71313;43.514;1.500;2023-09-12T09:23:46;99862.44;;;24.80;62.27
81865;BME280;71313;43.514;1.500;2023-09-12T09:26:12;99866.31;;;24.86;62.32
81865;BME280;71313;43.514;1.500;2023-09-12T09:28:37;99872.25;;;24.89;61.76
81865;BME280;71313;43.514;1.500;2023-09-12T09:31:05;99868.44;;;24.90;62.14
81865;BME280;71313;43.514;1.500;2023-09-12T09:33:35;99864.19;;;24.88;62.45
81865;BME280;71313;43.514;1.500;2023-09-12T09:36:03;99868.44;;;24.90;62.19
81865;BME280;71313;43.514;1.500;2023-09-12T09:38:29;99859.16;;;24.91;62.55
81865;BME280;71313;43.514;1.500;2023-09-12T09:40:55;99859.81;;;24.93;62.24
81865;BME280;71313;43.514;1.500;2023-09-12T09:43:21;99860.09;;;24.99;62.36
81865;BME280;71313;43.514;1.500;2023-09-12T09:45:46;99860.47;;;24.96;62.27
81865;BME280;71313;43.514;1.500;2023-09-12T09:48:23;99865.59;;;24.99;62.64
81865;BME280;71313;43.514;1.500;2023-09-12T09:50:49;99869.84;;;25.01;62.48
81865;BME280;71313;43.514;1.500;2023-09-12T09:53:14;99871.09;;;24.99;61.85
81865;BME280;71313;43.514;1.500;2023-09-12T09:55:40;99871.09;;;24.99;61.80
81865;BME280;71313;43.514;1.500;2023-09-12T09:58:07;99887.56;;;24.99;61.27
81865;BME280;71313;43.514;1.500;2023-09-12T10:00:39;99880.16;;;24.99;61.11
81865;BME280;71313;43.514;1.500;2023-09-12T10:03:05;99884.16;;;24.97;61.62
81865;BME280;71313;43.514;1.500;2023-09-12T10:05:32;99889.66;;;24.97;61.67
81865;BME280;71313;43.514;1.500;2023-09-12T10:07:59;99894.25;;;24.96;61.38
81865;BME280;71313;43.514;1.500;2023-09-12T10:10:26;99899.69;;;24.89;61.22
81865;BME280;71313;43.514;1.500;2023-09-12T10:12:58;99903.75;;;24.93;61.88
81865;BME280;71313;43.514;1.500;2023-09-12T10:15:27;99908.56;;;24.91;61.77
81865;BME280;71313;43.514;1.500;2023-09-12T10:17:57;99912.38;;;24.90;61.31
81865;BME280;71313;43.514;1.500;2023-09-12T10:20:29;99908.97;;;24.88;60.76
81865;BME280;71313;43.514;1.500;2023-09-12T10:25:36;99911.72;;;24.88;60.92
81865;BME280;71313;43.514;1.500;2023-09-12T10:28:05;99900.09;;;24.86;60.77
81865;BME280;71313;43.514;1.500;2023-09-12T10:30:35;99908.31;;;24.86;61.33
81865;BME280;71313;43.514;1.500;2023-09-12T10:33:02;99909.75;;;24.82;60.83
81865;BME280;71313;43.514;1.500;2023-09-12T10:35:30;99908.06;;;24.81;61.02
81865;BME280;71313;43.514;1.500;2023-09-12T10:38:00;99899.19;;;24.79;60.53
81865;BME280;71313;43.514;1.500;2023-09-12T10:40:29;99897.72;;;24.83;60.83
81865;BME280;71313;43.514;1.500;2023-09-12T10:42:55;99895.00;;;24.83;60.78
81865;BME280;71313;43.514;1.500;2023-09-12T10:45:22;99895.66;;;24.85;61.20
81865;BME280;71313;43.514;1.500;2023-09-12T10:47:48;99896.28;;;24.87;60.78
81865;BME280;71313;43.514;1.500;2023-09-12T10:50:13;99894.19;;;24.89;60.60
81865;BME280;71313;43.514;1.500;2023-09-12T10:52:39;99895.44;;;24.87;60.75
81865;BME280;71313;43.514;1.500;2023-09-12T10:55:07;99895.91;;;24.90;60.72
81865;BME280;71313;43.514;1.500;2023-09-12T10:57:32;99903.09;;;24.91;61.42
81865;BME280;71313;43.514;1.500;2023-09-12T11:05:00;99906.22;;;24.88;61.56
81865;BME280;71313;43.514;1.500;2023-09-12T11:07:33;99910.66;;;24.89;60.78
81865;BME280;71313;43.514;1.500;2023-09-12T11:12:40;99910.47;;;24.91;61.42
81865;BME280;71313;43.514;1.500;2023-09-12T11:15:07;99912.38;;;24.90;60.85
81865;BME280;71313;43.514;1.500;2023-09-12T11:17:46;99915.13;;;24.90;60.57
81865;BME280;71313;43.514;1.500;2023-09-12T11:20:13;99920.22;;;24.93;60.95
81865;BME280;71313;43.514;1.500;2023-09-12T11:27:46;99915.38;;;24.96;60.37
81865;BME280;71313;43.514;1.500;2023-09-12T11:30:27;99915.38;;;24.96;60.82
81865;BME280;71313;43.514;1.500;2023-09-12T11:33:04;99913.31;;;24.98;60.37
81865;BME280;71313;43.514;1.500;2023-09-12T11:35:30;99917.94;;;24.97;60.08
81865;BME280;71313;43.514;1.500;2023-09-12T11:38:00;99915.00;;;24.99;60.38
81865;BME280;71313;43.514;1.500;2023-09-12T11:42:58;99890.94;;;25.01;60.21
81865;BME280;71313;43.514;1.500;2023-09-12T11:45:24;99898.19;;;25.08;59.57
81865;BME280;71313;43.514;1.500;2023-09-12T11:47:50;99893.16;;;25.12;59.76
81865;BME280;71313;43.514;1.500;2023-09-12T11:50:28;99891.09;;;25.20;59.79
81865;BME280;71313;43.514;1.500;2023-09-12T11:53:11;99881.31;;;25.11;59.23
81865;BME280;71313;43.514;1.500;2023-09-12T11:55:42;99873.28;;;25.10;59.01
81865;BME280;71313;43.514;1.500;2023-09-12T11:58:08;99872.47;;;25.16;58.76
81865;BME280;71313;43.514;1.500;2023-09-12T12:00:34;99876.72;;;25.18;59.22
81865;BME280;71313;43.514;1.500;2023-09-12T12:02:59;99867.41;;;25.13;59.12
81865;BME280;71313;43.514;1.500;2023-09-12T12:05:25;99866.78;;;25.17;58.83
81865;BME280;71313;43.514;1.500;2023-09-12T12:07:50;99864.50;;;25.21;59.01
81865;BME280;71313;43.514;1.500;2023-09-12T12:10:17;99867.03;;;25.22;58.57
81865;BME280;71313;43.514;1.500;2023-09-12T12:12:44;99864.75;;;25.26;59.05
81865;BME280;71313;43.514;1.500;2023-09-12T12:15:11;99869.19;;;25.27;59.76
81865;BME280;71313;43.514;1.500;2023-09-12T12:17:37;99879.78;;;25.30;59.03
81865;BME280;71313;43.514;1.500;2023-09-12T12:20:07;99878.53;;;25.33;59.17
81865;BME280;71313;43.514;1.500;2023-09-12T12:22:36;99885.25;;;25.30;58.91
81865;BME280;71313;43.514;1.500;2023-09-12T12:25:09;99897.94;;;25.31;58.44
81865;BME280;71313;43.514;1.500;2023-09-12T12:27:39;99901.09;;;25.28;58.62
81865;BME280;71313;43.514;1.500;2023-09-12T12:30:12;99902.34;;;25.26;59.23
81865;BME280;71313;43.514;1.500;2023-09-12T12:32:42;99891.56;;;25.24;59.04
81865;BME280;71313;43.514;1.500;2023-09-12T12:35:16;99882.28;;;25.25;59.71
81865;BME280;71313;43.514;1.500;2023-09-12T12:37:42;99867.66;;;25.18;60.64
81865;BME280;71313;43.514;1.500;2023-09-12T12:40:12;99863.19;;;25.17;60.64
81865;BME280;71313;43.514;1.500;2023-09-12T12:42:41;99854.13;;;25.16;60.12
81865;BME280;71313;43.514;1.500;2023-09-12T12:45:12;99849.22;;;25.12;60.30
81865;BME280;71313;43.514;1.500;2023-09-12T12:47:38;99846.47;;;25.12;59.99
81865;BME280;71313;43.514;1.500;2023-09-12T12:50:10;99853.06;;;25.17;60.79
81865;BME280;71313;43.514;1.500;2023-09-12T12:52:37;99870.38;;;25.18;60.67
81865;BME280;71313;43.514;1.500;2023-09-12T12:55:06;99881.78;;;25.15;61.06
81865;BME280;71313;43.514;1.500;2023-09-12T12:57:36;99880.06;;;25.14;60.97
81865;BME280;71313;43.514;1.500;2023-09-12T13:00:01;99877.94;;;25.09;60.64
81865;BME280;71313;43.514;1.500;2023-09-12T13:02:28;99873.28;;;25.10;60.92
81865;BME280;71313;43.514;1.500;2023-09-12T13:04:53;99877.72;;;25.11;61.11
81865;BME280;71313;43.514;1.500;2023-09-12T13:07:19;99881.72;;;25.08;61.04
81865;BME280;71313;43.514;1.500;2023-09-12T13:09:44;99886.38;;;25.08;61.19
81865;BME280;71313;43.514;1.500;2023-09-12T13:12:13;99884.66;;;25.07;61.68
81865;BME280;71313;43.514;1.500;2023-09-12T13:14:40;99870.28;;;25.05;60.96
81865;BME280;71313;43.514;1.500;2023-09-12T13:17:05;99857.22;;;25.07;61.87
81865;BME280;71313;43.514;1.500;2023-09-12T13:19:31;99839.44;;;25.03;61.42